Latest Weather Observations for Little Bay

IDN60801

Issued at 3:23 am EDT Friday 29 January 2021 (issued every 10 minutes, with the page automatically refreshed every 10 minutes)

About weather observations | Map of weather stations | Latest weather observations for NSW | Other Formats
Station Details ID: 066051 Name: LITTLE BAY (THE COAST GOLF CLUB) Lat: -33.98 Lon: 151.25 Height: 22.0 m
Data from the previous 72 hours. | See also: Recent months at Little Bay
Date/Time
EDT
Temp
°C
App
Temp
°C
Dew
Point
°C
Rel
Hum
%
Delta-T
°C
Wind Press
QNH
hPa
Press
MSL
hPa
Rain since
9am
mm
Dir  Spd
km/h
Gust
km/h
Spd
kts
Gust
kts
29/03:00am - - - - - E 17 22 9 12 - - -
29/02:30am - - - - - E 20 24 11 13 - - -
29/02:00am - - - - - ENE 19 24 10 13 - - -
29/01:30am - - - - - ENE 20 30 11 16 - - -
29/01:00am - - - - - ENE 19 28 10 15 - - -
29/12:30am - - - - - ESE 17 22 9 12 - - -
29/12:00am - - - - - ESE 20 24 11 13 - - -
 
Date/Time
EDT
Temp
°C
App
Temp
°C
Dew
Point
°C
Rel
Hum
%
Delta-T
°C
Wind Press
QNH
hPa
Press
MSL
hPa
Rain since
9am
mm
Dir  Spd
km/h
Gust
km/h
Spd
kts
Gust
kts
28/11:30pm - - - - - ESE 22 30 12 16 - - -
28/11:00pm - - - - - ESE 20 28 11 15 - - -
28/10:30pm - - - - - SE 26 35 14 19 - - -
28/10:00pm - - - - - SSE 26 33 14 18 - - -
28/09:30pm - - - - - SE 32 39 17 21 - - -
28/09:00pm - - - - - ESE 22 35 12 19 - - -
28/08:30pm - - - - - SSE 20 28 11 15 - - -
28/08:00pm - - - - - SSE 30 41 16 22 - - -
28/07:30pm - - - - - ESE 19 24 10 13 - - -
28/07:00pm - - - - - SE 26 39 14 21 - - -
28/06:30pm - - - - - SE 32 39 17 21 - - -
28/06:00pm - - - - - SE 33 43 18 23 - - -
28/05:30pm - - - - - SE 30 37 16 20 - - -
28/05:00pm - - - - - SE 30 39 16 21 - - -
28/04:30pm - - - - - SE 28 33 15 18 - - -
28/04:00pm - - - - - SE 30 35 16 19 - - -
28/03:30pm - - - - - SSE 26 37 14 20 - - -
28/03:00pm - - - - - SE 28 39 15 21 - - -
28/02:30pm - - - - - SE 28 37 15 20 - - -
28/02:00pm - - - - - SE 28 35 15 19 - - -
28/01:30pm - - - - - SE 26 33 14 18 - - -
28/01:00pm - - - - - SE 28 35 15 19 - - -
28/12:30pm - - - - - SE 28 35 15 19 - - -
28/12:00pm - - - - - SE 32 39 17 21 - - -
28/11:30am - - - - - SE 33 41 18 22 - - -
28/11:00am - - - - - SE 32 39 17 21 - - -
28/10:30am - - - - - SSE 30 35 16 19 - - -
28/10:00am - - - - - SE 30 43 16 23 - - -
28/09:30am - - - - - SE 32 44 17 24 - - -
28/09:00am - - - - - SE 32 41 17 22 - - -
28/08:30am - - - - - SE 30 37 16 20 - - -
28/08:00am - - - - - SE 30 39 16 21 - - -
28/07:30am - - - - - SE 32 37 17 20 - - -
28/07:00am - - - - - SE 32 41 17 22 - - -
28/06:30am - - - - - SSE 32 43 17 23 - - -
28/06:00am - - - - - SE 32 39 17 21 - - -
28/05:30am - - - - - SSE 30 39 16 21 - - -
28/05:00am - - - - - SE 33 41 18 22 - - -
28/04:30am - - - - - SSE 32 39 17 21 - - -
28/04:00am - - - - - SSE 30 37 16 20 - - -
28/03:30am - - - - - SSE 32 43 17 23 - - -
28/03:00am - - - - - SSE 32 41 17 22 - - -
28/02:30am - - - - - SSE 33 41 18 22 - - -
28/02:00am - - - - - SSE 30 37 16 20 - - -
28/01:30am - - - - - SSE 28 33 15 18 - - -
28/01:00am - - - - - SSE 28 35 15 19 - - -
28/12:30am - - - - - SSE 32 39 17 21 - - -
28/12:00am - - - - - SSE 32 39 17 21 - - -
 
Date/Time
EDT
Temp
°C
App
Temp
°C
Dew
Point
°C
Rel
Hum
%
Delta-T
°C
Wind Press
QNH
hPa
Press
MSL
hPa
Rain since
9am
mm
Dir  Spd
km/h
Gust
km/h
Spd
kts
Gust
kts
27/11:30pm - - - - - SE 33 39 18 21 - - -
27/11:00pm - - - - - SE 33 41 18 22 - - -
27/10:30pm - - - - - SE 28 35 15 19 - - -
27/10:00pm - - - - - SSE 32 37 17 20 - - -
27/09:30pm - - - - - SE 33 43 18 23 - - -
27/09:00pm - - - - - SSE 30 43 16 23 - - -
27/08:30pm - - - - - SSE 32 37 17 20 - - -
27/08:00pm - - - - - SSE 26 33 14 18 - - -
27/07:30pm - - - - - SSE 30 39 16 21 - - -
27/07:00pm - - - - - SSE 32 43 17 23 - - -
27/06:30pm - - - - - SSE 26 33 14 18 - - -
27/06:00pm - - - - - S 24 37 13 20 - - -
27/05:30pm - - - - - S 30 41 16 22 - - -
27/05:00pm - - - - - SSW 32 43 17 23 - - -
27/04:30pm - - - - - S 28 39 15 21 - - -
27/04:18pm - - - - - S 30 50 16 27 - - -
27/04:00pm - - - - - SSW 30 43 16 23 - - -
27/03:46pm - - - - - SSW 28 46 15 25 - - -
27/03:30pm - - - - - S 30 43 16 23 - - -
27/03:00pm - - - - - S 33 50 18 27 - - -
27/02:30pm - - - - - S 33 48 18 26 - - -
27/02:00pm - - - - - S 32 43 17 23 - - -
27/01:30pm - - - - - S 32 48 17 26 - - -
27/01:00pm - - - - - S 35 46 19 25 - - -
27/12:30pm - - - - - S 33 46 18 25 - - -
27/12:00pm - - - - - S 33 48 18 26 - - -
27/11:30am - - - - - S 35 48 19 26 - - -
27/11:00am - - - - - S 33 43 18 23 - - -
27/10:30am - - - - - S 30 43 16 23 - - -
27/10:00am - - - - - S 32 41 17 22 - - -
27/09:30am - - - - - S 30 41 16 22 - - -
27/09:00am - - - - - S 33 43 18 23 - - -
27/08:30am - - - - - S 32 46 17 25 - - -
27/08:00am - - - - - S 35 50 19 27 - - -
27/07:53am - - - - - S 35 54 19 29 - - -
27/07:30am - - - - - S 35 50 19 27 - - -
27/07:00am - - - - - S 35 48 19 26 - - -
27/06:42am - - - - - SSW 32 50 17 27 - - -
27/06:30am - - - - - SSW 33 46 18 25 - - -
27/06:03am - - - - - SSW 32 50 17 27 - - -
27/06:00am - - - - - SSW 32 48 17 26 - - -
27/05:30am - - - - - SSW 35 54 19 29 - - -
27/05:29am - - - - - SSW 33 54 18 29 - - -
27/05:00am - - - - - SSW 35 48 19 26 - - -
27/04:30am - - - - - SSW 32 46 17 25 - - -
27/04:15am - - - - - SSW 32 50 17 27 - - -
27/04:00am - - - - - SSW 32 44 17 24 - - -
27/03:30am - - - - - SSW 26 37 14 20 - - -
27/03:00am - - - - - S 20 32 11 17 - - -
27/02:30am - - - - - SSW 20 28 11 15 - - -
27/02:00am - - - - - SSW 24 32 13 17 - - -
27/01:30am - - - - - S 22 33 12 18 - - -
27/01:00am - - - - - SSW 17 24 9 13 - - -
27/12:30am - - - - - SSE 19 30 10 16 - - -
27/12:00am - - - - - SSE 20 26 11 14 - - -
 
Date/Time
EDT
Temp
°C
App
Temp
°C
Dew
Point
°C
Rel
Hum
%
Delta-T
°C
Wind Press
QNH
hPa
Press
MSL
hPa
Rain since
9am
mm
Dir  Spd
km/h
Gust
km/h
Spd
kts
Gust
kts
26/11:30pm - - - - - S 17 28 9 15 - - -
26/11:00pm - - - - - S 24 32 13 17 - - -
26/10:30pm - - - - - S 32 43 17 23 - - -
26/10:00pm - - - - - SSW 30 43 16 23 - - -
26/09:43pm - - - - - SSW 28 43 15 23 - - -
26/09:30pm - - - - - W 7 22 4 12 - - -
26/09:00pm - - - - - N 11 20 6 11 - - -
26/08:30pm - - - - - N 24 37 13 20 - - -
26/08:00pm - - - - - NNE 24 35 13 19 - - -
26/07:30pm - - - - - NNE 24 37 13 20 - - -
26/07:00pm - - - - - NNE 24 35 13 19 - - -
26/06:30pm - - - - - NNE 24 35 13 19 - - -
26/06:00pm - - - - - NNE 22 32 12 17 - - -
26/05:30pm - - - - - NNE 22 35 12 19 - - -
26/05:00pm - - - - - NNE 24 37 13 20 - - -
26/04:30pm - - - - - N 24 37 13 20 - - -
26/04:00pm - - - - - NNE 24 35 13 19 - - -
26/03:30pm - - - - - NNE 24 35 13 19 - - -
26/03:00pm - - - - - NNE 26 39 14 21 - - -
26/02:30pm - - - - - NNE 24 35 13 19 - - -
26/02:00pm - - - - - NNE 22 32 12 17 - - -
26/01:30pm - - - - - NNE 24 33 13 18 - - -
26/01:00pm - - - - - NNE 22 32 12 17 - - -
26/12:30pm - - - - - NNE 26 35 14 19 - - -
26/12:00pm - - - - - NNE 22 28 12 15 - - -
26/11:30am - - - - - NNE 17 24 9 13 - - -
26/11:00am - - - - - NNE 13 19 7 10 - - -
26/10:30am - - - - - NNE 19 22 10 12 - - -
26/10:00am - - - - - N 19 24 10 13 - - -
26/09:30am - - - - - NNE 11 15 6 8 - - -
26/09:00am - - - - - N 13 15 7 8 - - -
26/08:30am - - - - - NNE 7 9 4 5 - - -
26/08:00am - - - - - NNE 9 13 5 7 - - -
26/07:30am - - - - - NNE 7 9 4 5 - - -
26/07:00am - - - - - N 7 11 4 6 - - -
26/06:30am - - - - - N 7 11 4 6 - - -
26/06:00am - - - - - N 7 13 4 7 - - -
26/05:30am - - - - - N 11 17 6 9 - - -
26/05:00am - - - - - NNE 13 19 7 10 - - -
26/04:30am - - - - - N 17 24 9 13 - - -
26/04:00am - - - - - NNE 17 24 9 13 - - -
26/03:30am - - - - - NNE 17 24 9 13 - - -

Other formats

Comma delimited format used in spreadsheet applications
http://www.bom.gov.au/fwo/IDN60801/IDN60801.94780.axf

JavaScript Object Notation format (JSON) in row-major order
http://www.bom.gov.au/fwo/IDN60801/IDN60801.94780.json

Data quality

Most of these data are generated automatically and are frequently updated. Quality checks on data are not normally performed. It is possible for incorrect values to appear. Refer to information at About Latest Weather Observations and please check the disclaimer before using these data.